sensor_id;sensor_type;location;lat;lon;timestamp;P1;durP1;ratioP1;P2;durP2;ratioP2
39448;SDS011;25151;45.566;9.382;2022-09-09T00:02:20;8.13;;;3.10;;
39448;SDS011;25151;45.566;9.382;2022-09-09T00:05:35;7.88;;;3.22;;
39448;SDS011;25151;45.566;9.382;2022-09-09T00:09:12;8.80;;;3.40;;
39448;SDS011;25151;45.566;9.382;2022-09-09T00:12:18;5.47;;;2.75;;
39448;SDS011;25151;45.566;9.382;2022-09-09T00:15:34;4.45;;;2.65;;
39448;SDS011;25151;45.566;9.382;2022-09-09T00:19:04;6.97;;;3.13;;
39448;SDS011;25151;45.566;9.382;2022-09-09T00:22:14;5.13;;;3.35;;
39448;SDS011;25151;45.566;9.382;2022-09-09T00:25:19;5.88;;;3.40;;
39448;SDS011;25151;45.566;9.382;2022-09-09T00:28:36;5.35;;;2.97;;
39448;SDS011;25151;45.566;9.382;2022-09-09T00:31:44;7.88;;;2.88;;
39448;SDS011;25151;45.566;9.382;2022-09-09T00:37:57;4.38;;;2.60;;
39448;SDS011;25151;45.566;9.382;2022-09-09T00:41:22;5.03;;;3.13;;
39448;SDS011;25151;45.566;9.382;2022-09-09T00:44:30;5.10;;;2.97;;
39448;SDS011;25151;45.566;9.382;2022-09-09T00:47:51;7.28;;;3.45;;
39448;SDS011;25151;45.566;9.382;2022-09-09T00:50:53;4.88;;;3.00;;
39448;SDS011;25151;45.566;9.382;2022-09-09T00:54:17;4.45;;;3.00;;
39448;SDS011;25151;45.566;9.382;2022-09-09T00:57:35;5.50;;;3.53;;
39448;SDS011;25151;45.566;9.382;2022-09-09T01:00:42;4.15;;;3.08;;
39448;SDS011;25151;45.566;9.382;2022-09-09T01:03:52;6.00;;;3.30;;
39448;SDS011;25151;45.566;9.382;2022-09-09T01:06:55;6.70;;;3.78;;
39448;SDS011;25151;45.566;9.382;2022-09-09T01:10:26;5.63;;;3.00;;
39448;SDS011;25151;45.566;9.382;2022-09-09T01:13:38;4.47;;;3.00;;
39448;SDS011;25151;45.566;9.382;2022-09-09T01:16:41;6.72;;;2.97;;
39448;SDS011;25151;45.566;9.382;2022-09-09T01:29:16;8.07;;;3.28;;
39448;SDS011;25151;45.566;9.382;2022-09-09T01:35:47;4.25;;;2.60;;
39448;SDS011;25151;45.566;9.382;2022-09-09T01:38:54;4.65;;;3.05;;
39448;SDS011;25151;45.566;9.382;2022-09-09T01:41:55;4.68;;;2.80;;
39448;SDS011;25151;45.566;9.382;2022-09-09T01:44:57;4.25;;;2.95;;
39448;SDS011;25151;45.566;9.382;2022-09-09T01:47:57;4.35;;;2.67;;
39448;SDS011;25151;45.566;9.382;2022-09-09T01:50:59;5.38;;;3.17;;
39448;SDS011;25151;45.566;9.382;2022-09-09T01:54:00;6.07;;;2.88;;
39448;SDS011;25151;45.566;9.382;2022-09-09T02:00:08;3.88;;;2.67;;
39448;SDS011;25151;45.566;9.382;2022-09-09T02:03:16;5.10;;;2.70;;
39448;SDS011;25151;45.566;9.382;2022-09-09T02:09:37;6.55;;;2.83;;
39448;SDS011;25151;45.566;9.382;2022-09-09T02:12:43;3.88;;;2.58;;
39448;SDS011;25151;45.566;9.382;2022-09-09T02:16:00;3.60;;;2.67;;
39448;SDS011;25151;45.566;9.382;2022-09-09T02:22:26;6.32;;;3.08;;
39448;SDS011;25151;45.566;9.382;2022-09-09T02:25:29;3.50;;;2.63;;
39448;SDS011;25151;45.566;9.382;2022-09-09T02:28:31;5.82;;;2.80;;
39448;SDS011;25151;45.566;9.382;2022-09-09T02:31:33;4.68;;;2.72;;
39448;SDS011;25151;45.566;9.382;2022-09-09T02:34:36;8.00;;;3.10;;
39448;SDS011;25151;45.566;9.382;2022-09-09T02:37:44;5.00;;;2.60;;
39448;SDS011;25151;45.566;9.382;2022-09-09T02:40:48;4.65;;;2.72;;
39448;SDS011;25151;45.566;9.382;2022-09-09T02:43:48;4.72;;;2.50;;
39448;SDS011;25151;45.566;9.382;2022-09-09T02:47:03;4.57;;;2.63;;
39448;SDS011;25151;45.566;9.382;2022-09-09T02:57:18;4.20;;;2.55;;
39448;SDS011;25151;45.566;9.382;2022-09-09T03:00:23;4.70;;;2.25;;
39448;SDS011;25151;45.566;9.382;2022-09-09T03:03:25;4.45;;;2.85;;
39448;SDS011;25151;45.566;9.382;2022-09-09T03:06:27;5.25;;;2.30;;
39448;SDS011;25151;45.566;9.382;2022-09-09T03:09:28;3.97;;;2.08;;
39448;SDS011;25151;45.566;9.382;2022-09-09T03:12:28;4.95;;;2.78;;
39448;SDS011;25151;45.566;9.382;2022-09-09T03:15:29;6.80;;;2.50;;
39448;SDS011;25151;45.566;9.382;2022-09-09T03:18:31;5.47;;;2.60;;
39448;SDS011;25151;45.566;9.382;2022-09-09T03:21:32;4.15;;;2.60;;
39448;SDS011;25151;45.566;9.382;2022-09-09T03:24:33;4.53;;;2.50;;
39448;SDS011;25151;45.566;9.382;2022-09-09T03:27:33;6.25;;;2.78;;
39448;SDS011;25151;45.566;9.382;2022-09-09T03:30:34;4.15;;;2.10;;
39448;SDS011;25151;45.566;9.382;2022-09-09T03:33:35;4.70;;;2.33;;
39448;SDS011;25151;45.566;9.382;2022-09-09T03:36:37;4.40;;;2.00;;
39448;SDS011;25151;45.566;9.382;2022-09-09T03:39:37;3.45;;;2.40;;
39448;SDS011;25151;45.566;9.382;2022-09-09T03:42:38;3.58;;;2.22;;
39448;SDS011;25151;45.566;9.382;2022-09-09T03:45:39;3.75;;;2.10;;
39448;SDS011;25151;45.566;9.382;2022-09-09T03:48:40;4.40;;;2.83;;
39448;SDS011;25151;45.566;9.382;2022-09-09T03:51:40;4.85;;;2.10;;
39448;SDS011;25151;45.566;9.382;2022-09-09T03:54:41;4.18;;;2.22;;
39448;SDS011;25151;45.566;9.382;2022-09-09T03:57:42;4.95;;;2.22;;
39448;SDS011;25151;45.566;9.382;2022-09-09T04:00:43;3.30;;;2.25;;
39448;SDS011;25151;45.566;9.382;2022-09-09T04:03:44;3.95;;;2.50;;
39448;SDS011;25151;45.566;9.382;2022-09-09T04:06:46;3.20;;;1.77;;
39448;SDS011;25151;45.566;9.382;2022-09-09T04:09:48;3.83;;;2.17;;
39448;SDS011;25151;45.566;9.382;2022-09-09T04:12:48;4.35;;;2.58;;
39448;SDS011;25151;45.566;9.382;2022-09-09T04:15:52;5.70;;;2.78;;
39448;SDS011;25151;45.566;9.382;2022-09-09T04:18:57;4.90;;;2.78;;
39448;SDS011;25151;45.566;9.382;2022-09-09T04:21:59;4.10;;;2.60;;
39448;SDS011;25151;45.566;9.382;2022-09-09T04:25:00;7.15;;;2.47;;
39448;SDS011;25151;45.566;9.382;2022-09-09T04:28:00;4.30;;;2.20;;
39448;SDS011;25151;45.566;9.382;2022-09-09T04:31:06;3.95;;;2.33;;
39448;SDS011;25151;45.566;9.382;2022-09-09T04:34:09;4.22;;;2.30;;
39448;SDS011;25151;45.566;9.382;2022-09-09T04:37:09;6.78;;;2.50;;
39448;SDS011;25151;45.566;9.382;2022-09-09T04:40:10;3.78;;;2.20;;
39448;SDS011;25151;45.566;9.382;2022-09-09T04:43:10;3.53;;;2.25;;
39448;SDS011;25151;45.566;9.382;2022-09-09T04:46:11;3.22;;;2.17;;
39448;SDS011;25151;45.566;9.382;2022-09-09T04:49:13;3.50;;;2.08;;
39448;SDS011;25151;45.566;9.382;2022-09-09T04:52:14;6.97;;;2.78;;
39448;SDS011;25151;45.566;9.382;2022-09-09T04:55:17;4.07;;;2.65;;
39448;SDS011;25151;45.566;9.382;2022-09-09T04:58:17;5.45;;;2.65;;
39448;SDS011;25151;45.566;9.382;2022-09-09T05:01:19;3.88;;;2.10;;
39448;SDS011;25151;45.566;9.382;2022-09-09T05:04:22;5.07;;;2.38;;
39448;SDS011;25151;45.566;9.382;2022-09-09T05:07:22;4.50;;;2.65;;
39448;SDS011;25151;45.566;9.382;2022-09-09T05:10:23;3.05;;;1.75;;
39448;SDS011;25151;45.566;9.382;2022-09-09T05:13:23;2.67;;;2.10;;
39448;SDS011;25151;45.566;9.382;2022-09-09T05:16:24;3.80;;;2.05;;
39448;SDS011;25151;45.566;9.382;2022-09-09T05:19:25;3.85;;;2.22;;
39448;SDS011;25151;45.566;9.382;2022-09-09T05:22:26;4.55;;;2.20;;
39448;SDS011;25151;45.566;9.382;2022-09-09T05:25:26;6.15;;;2.15;;
39448;SDS011;25151;45.566;9.382;2022-09-09T05:28:27;2.95;;;2.00;;
39448;SDS011;25151;45.566;9.382;2022-09-09T05:31:29;3.40;;;2.22;;
39448;SDS011;25151;45.566;9.382;2022-09-09T05:34:30;3.13;;;1.80;;
39448;SDS011;25151;45.566;9.382;2022-09-09T05:37:31;4.07;;;2.33;;
39448;SDS011;25151;45.566;9.382;2022-09-09T05:40:31;4.25;;;2.00;;
39448;SDS011;25151;45.566;9.382;2022-09-09T05:43:32;3.28;;;2.28;;
39448;SDS011;25151;45.566;9.382;2022-09-09T05:46:35;4.30;;;2.47;;
39448;SDS011;25151;45.566;9.382;2022-09-09T05:49:36;4.75;;;2.10;;
39448;SDS011;25151;45.566;9.382;2022-09-09T05:52:37;4.03;;;1.92;;
39448;SDS011;25151;45.566;9.382;2022-09-09T05:55:37;5.22;;;2.10;;
39448;SDS011;25151;45.566;9.382;2022-09-09T05:58:38;4.43;;;2.20;;
39448;SDS011;25151;45.566;9.382;2022-09-09T06:01:39;4.30;;;2.10;;
39448;SDS011;25151;45.566;9.382;2022-09-09T06:04:43;5.00;;;2.63;;
39448;SDS011;25151;45.566;9.382;2022-09-09T06:07:45;4.22;;;2.10;;
39448;SDS011;25151;45.566;9.382;2022-09-09T06:10:46;3.97;;;2.10;;
39448;SDS011;25151;45.566;9.382;2022-09-09T06:13:47;2.47;;;1.85;;
39448;SDS011;25151;45.566;9.382;2022-09-09T06:16:51;4.65;;;2.17;;
39448;SDS011;25151;45.566;9.382;2022-09-09T06:19:52;2.80;;;1.92;;
39448;SDS011;25151;45.566;9.382;2022-09-09T06:22:52;3.90;;;2.17;;
39448;SDS011;25151;45.566;9.382;2022-09-09T06:26:06;3.78;;;2.45;;
39448;SDS011;25151;45.566;9.382;2022-09-09T06:29:09;3.67;;;2.08;;
39448;SDS011;25151;45.566;9.382;2022-09-09T06:32:10;3.75;;;2.38;;
39448;SDS011;25151;45.566;9.382;2022-09-09T06:35:10;3.30;;;1.92;;
39448;SDS011;25151;45.566;9.382;2022-09-09T06:38:11;3.60;;;2.20;;
39448;SDS011;25151;45.566;9.382;2022-09-09T06:41:13;8.52;;;2.20;;
39448;SDS011;25151;45.566;9.382;2022-09-09T06:44:15;5.28;;;2.40;;
39448;SDS011;25151;45.566;9.382;2022-09-09T06:47:16;11.48;;;2.53;;
39448;SDS011;25151;45.566;9.382;2022-09-09T06:50:17;6.20;;;2.28;;
39448;SDS011;25151;45.566;9.382;2022-09-09T06:53:18;9.65;;;2.65;;
39448;SDS011;25151;45.566;9.382;2022-09-09T06:56:23;7.47;;;1.45;;
39448;SDS011;25151;45.566;9.382;2022-09-09T06:59:28;8.70;;;2.20;;
39448;SDS011;25151;45.566;9.382;2022-09-09T07:02:30;4.50;;;1.98;;
39448;SDS011;25151;45.566;9.382;2022-09-09T07:05:31;5.15;;;1.80;;
39448;SDS011;25151;45.566;9.382;2022-09-09T07:08:32;7.10;;;2.88;;
39448;SDS011;25151;45.566;9.382;2022-09-09T07:11:34;5.13;;;1.92;;
39448;SDS011;25151;45.566;9.382;2022-09-09T07:14:38;6.50;;;2.17;;
39448;SDS011;25151;45.566;9.382;2022-09-09T07:17:40;6.30;;;2.42;;
39448;SDS011;25151;45.566;9.382;2022-09-09T07:20:41;5.68;;;1.83;;
39448;SDS011;25151;45.566;9.382;2022-09-09T07:23:42;4.95;;;1.27;;
39448;SDS011;25151;45.566;9.382;2022-09-09T07:26:42;8.05;;;2.10;;
39448;SDS011;25151;45.566;9.382;2022-09-09T07:29:44;5.88;;;1.80;;
39448;SDS011;25151;45.566;9.382;2022-09-09T07:32:45;6.65;;;1.90;;
39448;SDS011;25151;45.566;9.382;2022-09-09T07:35:45;4.35;;;1.95;;
39448;SDS011;25151;45.566;9.382;2022-09-09T07:38:47;5.03;;;1.88;;
39448;SDS011;25151;45.566;9.382;2022-09-09T07:41:50;5.38;;;1.98;;
39448;SDS011;25151;45.566;9.382;2022-09-09T07:44:51;3.75;;;1.70;;
39448;SDS011;25151;45.566;9.382;2022-09-09T07:47:54;4.97;;;1.77;;
39448;SDS011;25151;45.566;9.382;2022-09-09T07:51:09;7.18;;;2.10;;
39448;SDS011;25151;45.566;9.382;2022-09-09T07:54:13;4.45;;;2.13;;
39448;SDS011;25151;45.566;9.382;2022-09-09T07:57:17;3.03;;;1.75;;
39448;SDS011;25151;45.566;9.382;2022-09-09T08:00:18;6.15;;;1.63;;
39448;SDS011;25151;45.566;9.382;2022-09-09T08:03:20;4.68;;;1.58;;
39448;SDS011;25151;45.566;9.382;2022-09-09T08:06:22;3.10;;;1.83;;
39448;SDS011;25151;45.566;9.382;2022-09-09T08:09:24;5.55;;;1.50;;
39448;SDS011;25151;45.566;9.382;2022-09-09T08:12:27;3.53;;;1.60;;
39448;SDS011;25151;45.566;9.382;2022-09-09T08:15:28;5.22;;;1.70;;
39448;SDS011;25151;45.566;9.382;2022-09-09T08:18:30;5.35;;;1.85;;
39448;SDS011;25151;45.566;9.382;2022-09-09T08:21:31;4.10;;;1.63;;
39448;SDS011;25151;45.566;9.382;2022-09-09T08:24:33;4.13;;;1.30;;
39448;SDS011;25151;45.566;9.382;2022-09-09T08:27:34;6.32;;;1.83;;
39448;SDS011;25151;45.566;9.382;2022-09-09T08:30:35;3.58;;;1.58;;
39448;SDS011;25151;45.566;9.382;2022-09-09T08:33:37;5.18;;;1.73;;
39448;SDS011;25151;45.566;9.382;2022-09-09T08:36:41;8.45;;;1.77;;
39448;SDS011;25151;45.566;9.382;2022-09-09T08:39:43;4.03;;;1.70;;
39448;SDS011;25151;45.566;9.382;2022-09-09T08:42:45;7.45;;;2.50;;
39448;SDS011;25151;45.566;9.382;2022-09-09T08:56:09;5.05;;;1.75;;
39448;SDS011;25151;45.566;9.382;2022-09-09T08:59:14;4.70;;;1.70;;
39448;SDS011;25151;45.566;9.382;2022-09-09T09:05:31;5.38;;;1.70;;
39448;SDS011;25151;45.566;9.382;2022-09-09T09:08:45;2.75;;;1.55;;
39448;SDS011;25151;45.566;9.382;2022-09-09T09:11:50;5.25;;;1.58;;
39448;SDS011;25151;45.566;9.382;2022-09-09T09:15:05;3.75;;;1.50;;
39448;SDS011;25151;45.566;9.382;2022-09-09T09:18:21;3.15;;;1.58;;
39448;SDS011;25151;45.566;9.382;2022-09-09T09:21:27;4.95;;;1.60;;
39448;SDS011;25151;45.566;9.382;2022-09-09T09:28:00;4.20;;;1.63;;
39448;SDS011;25151;45.566;9.382;2022-09-09T09:31:19;4.43;;;1.50;;
39448;SDS011;25151;45.566;9.382;2022-09-09T09:34:20;4.95;;;1.80;;
39448;SDS011;25151;45.566;9.382;2022-09-09T09:37:31;4.88;;;1.70;;
39448;SDS011;25151;45.566;9.382;2022-09-09T09:40:35;5.78;;;1.52;;
39448;SDS011;25151;45.566;9.382;2022-09-09T09:43:36;7.28;;;1.50;;
39448;SDS011;25151;45.566;9.382;2022-09-09T09:46:40;3.67;;;1.45;;
39448;SDS011;25151;45.566;9.382;2022-09-09T09:49:56;4.50;;;1.80;;
39448;SDS011;25151;45.566;9.382;2022-09-09T09:53:03;5.25;;;1.60;;
39448;SDS011;25151;45.566;9.382;2022-09-09T09:56:05;4.65;;;1.63;;
39448;SDS011;25151;45.566;9.382;2022-09-09T10:02:38;3.30;;;1.55;;
39448;SDS011;25151;45.566;9.382;2022-09-09T10:05:44;8.77;;;1.40;;
39448;SDS011;25151;45.566;9.382;2022-09-09T10:08:46;3.13;;;1.15;;
39448;SDS011;25151;45.566;9.382;2022-09-09T10:11:51;1.80;;;1.15;;
39448;SDS011;25151;45.566;9.382;2022-09-09T10:25:04;3.45;;;1.25;;
39448;SDS011;25151;45.566;9.382;2022-09-09T10:31:48;3.72;;;1.38;;
39448;SDS011;25151;45.566;9.382;2022-09-09T10:57:44;3.53;;;1.30;;
39448;SDS011;25151;45.566;9.382;2022-09-09T11:00:53;5.90;;;1.10;;
39448;SDS011;25151;45.566;9.382;2022-09-09T11:04:08;3.38;;;1.27;;
39448;SDS011;25151;45.566;9.382;2022-09-09T11:07:11;2.95;;;1.30;;
39448;SDS011;25151;45.566;9.382;2022-09-09T11:10:21;4.45;;;1.40;;
39448;SDS011;25151;45.566;9.382;2022-09-09T11:14:18;4.80;;;1.45;;
39448;SDS011;25151;45.566;9.382;2022-09-09T11:17:06;4.15;;;1.45;;
39448;SDS011;25151;45.566;9.382;2022-09-09T11:20:13;5.60;;;1.60;;
39448;SDS011;25151;45.566;9.382;2022-09-09T11:23:16;4.53;;;1.42;;
39448;SDS011;25151;45.566;9.382;2022-09-09T11:26:30;5.20;;;1.38;;
39448;SDS011;25151;45.566;9.382;2022-09-09T11:29:59;2.47;;;1.30;;
39448;SDS011;25151;45.566;9.382;2022-09-09T11:36:39;4.70;;;1.30;;
39448;SDS011;25151;45.566;9.382;2022-09-09T11:40:03;3.97;;;1.38;;
39448;SDS011;25151;45.566;9.382;2022-09-09T11:43:24;3.47;;;1.60;;
39448;SDS011;25151;45.566;9.382;2022-09-09T11:46:35;5.00;;;1.40;;
39448;SDS011;25151;45.566;9.382;2022-09-09T11:52:40;5.68;;;1.45;;
39448;SDS011;25151;45.566;9.382;2022-09-09T11:56:00;2.70;;;1.30;;
39448;SDS011;25151;45.566;9.382;2022-09-09T11:59:05;4.88;;;1.40;;
39448;SDS011;25151;45.566;9.382;2022-09-09T12:08:48;6.13;;;1.50;;
39448;SDS011;25151;45.566;9.382;2022-09-09T12:11:53;4.38;;;1.40;;
39448;SDS011;25151;45.566;9.382;2022-09-09T12:18:14;2.70;;;1.10;;
39448;SDS011;25151;45.566;9.382;2022-09-09T12:21:29;4.22;;;1.38;;
39448;SDS011;25151;45.566;9.382;2022-09-09T12:24:43;4.38;;;1.33;;
39448;SDS011;25151;45.566;9.382;2022-09-09T12:27:50;3.67;;;1.35;;
39448;SDS011;25151;45.566;9.382;2022-09-09T12:34:41;9.73;;;1.67;;
39448;SDS011;25151;45.566;9.382;2022-09-09T12:38:01;4.55;;;1.30;;
39448;SDS011;25151;45.566;9.382;2022-09-09T12:41:03;7.60;;;2.05;;
39448;SDS011;25151;45.566;9.382;2022-09-09T12:44:04;4.30;;;1.30;;
39448;SDS011;25151;45.566;9.382;2022-09-09T12:47:06;2.70;;;1.40;;
39448;SDS011;25151;45.566;9.382;2022-09-09T12:50:16;2.85;;;1.60;;
39448;SDS011;25151;45.566;9.382;2022-09-09T12:53:33;3.95;;;1.45;;
39448;SDS011;25151;45.566;9.382;2022-09-09T12:56:36;4.97;;;1.30;;
39448;SDS011;25151;45.566;9.382;2022-09-09T12:59:38;5.55;;;1.40;;
39448;SDS011;25151;45.566;9.382;2022-09-09T13:06:21;4.90;;;0.90;;
39448;SDS011;25151;45.566;9.382;2022-09-09T13:09:23;3.35;;;1.50;;
39448;SDS011;25151;45.566;9.382;2022-09-09T13:12:24;4.72;;;1.23;;
39448;SDS011;25151;45.566;9.382;2022-09-09T13:15:26;1.05;;;0.80;;
39448;SDS011;25151;45.566;9.382;2022-09-09T13:18:30;3.38;;;1.35;;
39448;SDS011;25151;45.566;9.382;2022-09-09T13:21:34;4.15;;;1.10;;
39448;SDS011;25151;45.566;9.382;2022-09-09T13:24:39;3.42;;;1.13;;
39448;SDS011;25151;45.566;9.382;2022-09-09T13:27:40;4.07;;;1.20;;
39448;SDS011;25151;45.566;9.382;2022-09-09T13:30:42;4.38;;;1.15;;
39448;SDS011;25151;45.566;9.382;2022-09-09T13:33:44;4.47;;;1.08;;
39448;SDS011;25151;45.566;9.382;2022-09-09T13:36:55;2.42;;;1.17;;
39448;SDS011;25151;45.566;9.382;2022-09-09T13:40:03;3.67;;;1.25;;
39448;SDS011;25151;45.566;9.382;2022-09-09T13:43:12;3.72;;;1.08;;
39448;SDS011;25151;45.566;9.382;2022-09-09T13:46:33;3.80;;;1.75;;
39448;SDS011;25151;45.566;9.382;2022-09-09T13:49:36;2.17;;;1.30;;
39448;SDS011;25151;45.566;9.382;2022-09-09T13:52:36;2.53;;;1.10;;
39448;SDS011;25151;45.566;9.382;2022-09-09T13:55:37;3.50;;;1.35;;
39448;SDS011;25151;45.566;9.382;2022-09-09T13:58:39;4.75;;;1.27;;
39448;SDS011;25151;45.566;9.382;2022-09-09T14:01:40;3.38;;;1.10;;
39448;SDS011;25151;45.566;9.382;2022-09-09T14:04:42;3.70;;;1.50;;
39448;SDS011;25151;45.566;9.382;2022-09-09T14:07:43;4.20;;;1.52;;
39448;SDS011;25151;45.566;9.382;2022-09-09T14:10:44;4.40;;;1.00;;
39448;SDS011;25151;45.566;9.382;2022-09-09T14:13:45;2.25;;;1.25;;
39448;SDS011;25151;45.566;9.382;2022-09-09T14:16:46;1.92;;;0.90;;
39448;SDS011;25151;45.566;9.382;2022-09-09T14:19:47;2.95;;;1.10;;
39448;SDS011;25151;45.566;9.382;2022-09-09T14:22:48;2.65;;;1.05;;
39448;SDS011;25151;45.566;9.382;2022-09-09T14:25:48;3.50;;;1.10;;
39448;SDS011;25151;45.566;9.382;2022-09-09T14:28:55;4.03;;;0.90;;
39448;SDS011;25151;45.566;9.382;2022-09-09T14:31:56;3.03;;;1.33;;
39448;SDS011;25151;45.566;9.382;2022-09-09T14:34:56;1.83;;;1.20;;
39448;SDS011;25151;45.566;9.382;2022-09-09T14:37:57;3.22;;;1.27;;
39448;SDS011;25151;45.566;9.382;2022-09-09T14:40:57;1.58;;;0.85;;
39448;SDS011;25151;45.566;9.382;2022-09-09T14:43:58;3.10;;;1.17;;
39448;SDS011;25151;45.566;9.382;2022-09-09T14:47:00;3.03;;;1.08;;
39448;SDS011;25151;45.566;9.382;2022-09-09T14:50:02;2.42;;;1.10;;
39448;SDS011;25151;45.566;9.382;2022-09-09T14:53:05;2.58;;;1.27;;
39448;SDS011;25151;45.566;9.382;2022-09-09T14:56:10;2.58;;;1.27;;
39448;SDS011;25151;45.566;9.382;2022-09-09T14:59:13;2.78;;;1.10;;
39448;SDS011;25151;45.566;9.382;2022-09-09T15:02:14;3.05;;;1.30;;
39448;SDS011;25151;45.566;9.382;2022-09-09T15:05:17;1.75;;;1.10;;
39448;SDS011;25151;45.566;9.382;2022-09-09T15:08:18;3.03;;;1.40;;
39448;SDS011;25151;45.566;9.382;2022-09-09T15:11:19;1.98;;;1.30;;
39448;SDS011;25151;45.566;9.382;2022-09-09T15:14:20;1.88;;;1.00;;
39448;SDS011;25151;45.566;9.382;2022-09-09T15:17:26;2.35;;;1.23;;
39448;SDS011;25151;45.566;9.382;2022-09-09T15:20:27;2.25;;;1.02;;
39448;SDS011;25151;45.566;9.382;2022-09-09T15:23:27;3.70;;;1.17;;
39448;SDS011;25151;45.566;9.382;2022-09-09T15:26:28;2.42;;;1.20;;
39448;SDS011;25151;45.566;9.382;2022-09-09T15:29:30;1.25;;;0.85;;
39448;SDS011;25151;45.566;9.382;2022-09-09T15:32:30;2.05;;;0.80;;
39448;SDS011;25151;45.566;9.382;2022-09-09T15:35:34;2.83;;;0.90;;
39448;SDS011;25151;45.566;9.382;2022-09-09T15:38:34;4.90;;;1.40;;
39448;SDS011;25151;45.566;9.382;2022-09-09T15:41:35;3.15;;;0.98;;
39448;SDS011;25151;45.566;9.382;2022-09-09T15:44:41;3.10;;;1.00;;
39448;SDS011;25151;45.566;9.382;2022-09-09T15:47:42;3.47;;;1.08;;
39448;SDS011;25151;45.566;9.382;2022-09-09T15:50:43;1.48;;;1.05;;
39448;SDS011;25151;45.566;9.382;2022-09-09T15:53:44;3.22;;;0.80;;
39448;SDS011;25151;45.566;9.382;2022-09-09T15:56:46;3.13;;;1.33;;
39448;SDS011;25151;45.566;9.382;2022-09-09T15:59:50;2.65;;;0.90;;
39448;SDS011;25151;45.566;9.382;2022-09-09T16:02:50;3.17;;;1.33;;
39448;SDS011;25151;45.566;9.382;2022-09-09T16:05:51;1.90;;;0.88;;
39448;SDS011;25151;45.566;9.382;2022-09-09T16:08:53;1.42;;;0.77;;
39448;SDS011;25151;45.566;9.382;2022-09-09T16:11:56;2.17;;;0.90;;
39448;SDS011;25151;45.566;9.382;2022-09-09T16:14:58;1.63;;;0.82;;
39448;SDS011;25151;45.566;9.382;2022-09-09T16:18:00;1.80;;;0.95;;
39448;SDS011;25151;45.566;9.382;2022-09-09T16:21:00;2.50;;;1.33;;
39448;SDS011;25151;45.566;9.382;2022-09-09T16:24:02;2.10;;;1.00;;
39448;SDS011;25151;45.566;9.382;2022-09-09T16:27:04;1.92;;;1.15;;
39448;SDS011;25151;45.566;9.382;2022-09-09T16:30:05;4.43;;;1.00;;
39448;SDS011;25151;45.566;9.382;2022-09-09T16:33:06;1.75;;;1.05;;
39448;SDS011;25151;45.566;9.382;2022-09-09T16:36:08;1.73;;;1.00;;
39448;SDS011;25151;45.566;9.382;2022-09-09T16:39:11;3.72;;;1.17;;
39448;SDS011;25151;45.566;9.382;2022-09-09T16:42:13;5.53;;;1.30;;
39448;SDS011;25151;45.566;9.382;2022-09-09T16:45:14;1.27;;;1.05;;
39448;SDS011;25151;45.566;9.382;2022-09-09T16:48:14;2.30;;;1.10;;
39448;SDS011;25151;45.566;9.382;2022-09-09T16:51:25;3.03;;;1.38;;
39448;SDS011;25151;45.566;9.382;2022-09-09T16:54:27;4.82;;;1.17;;
39448;SDS011;25151;45.566;9.382;2022-09-09T16:57:28;2.25;;;0.93;;
39448;SDS011;25151;45.566;9.382;2022-09-09T17:00:30;1.80;;;1.00;;
39448;SDS011;25151;45.566;9.382;2022-09-09T17:03:31;3.38;;;1.13;;
39448;SDS011;25151;45.566;9.382;2022-09-09T17:06:32;3.42;;;1.02;;
39448;SDS011;25151;45.566;9.382;2022-09-09T17:09:40;4.60;;;1.00;;
39448;SDS011;25151;45.566;9.382;2022-09-09T17:12:40;3.70;;;0.90;;
39448;SDS011;25151;45.566;9.382;2022-09-09T17:15:42;1.65;;;1.00;;
39448;SDS011;25151;45.566;9.382;2022-09-09T17:18:43;3.33;;;0.77;;
39448;SDS011;25151;45.566;9.382;2022-09-09T17:21:46;1.85;;;0.82;;
39448;SDS011;25151;45.566;9.382;2022-09-09T17:24:49;4.10;;;1.30;;
39448;SDS011;25151;45.566;9.382;2022-09-09T17:27:49;1.50;;;0.73;;
39448;SDS011;25151;45.566;9.382;2022-09-09T17:30:51;4.53;;;1.40;;
39448;SDS011;25151;45.566;9.382;2022-09-09T17:33:52;1.92;;;1.00;;
39448;SDS011;25151;45.566;9.382;2022-09-09T17:36:53;6.85;;;0.80;;
39448;SDS011;25151;45.566;9.382;2022-09-09T17:39:54;2.25;;;1.30;;
39448;SDS011;25151;45.566;9.382;2022-09-09T17:42:55;3.38;;;0.90;;
39448;SDS011;25151;45.566;9.382;2022-09-09T17:46:04;2.47;;;0.90;;
39448;SDS011;25151;45.566;9.382;2022-09-09T17:49:07;5.55;;;1.63;;
39448;SDS011;25151;45.566;9.382;2022-09-09T17:52:09;2.42;;;0.98;;
39448;SDS011;25151;45.566;9.382;2022-09-09T17:55:10;4.07;;;1.02;;
39448;SDS011;25151;45.566;9.382;2022-09-09T17:58:10;3.35;;;1.23;;
39448;SDS011;25151;45.566;9.382;2022-09-09T18:01:14;3.20;;;1.08;;
39448;SDS011;25151;45.566;9.382;2022-09-09T18:04:23;3.95;;;1.25;;
39448;SDS011;25151;45.566;9.382;2022-09-09T18:07:24;2.08;;;0.75;;
39448;SDS011;25151;45.566;9.382;2022-09-09T18:10:25;3.83;;;1.33;;
39448;SDS011;25151;45.566;9.382;2022-09-09T18:13:26;2.85;;;0.90;;
39448;SDS011;25151;45.566;9.382;2022-09-09T18:16:29;3.80;;;1.30;;
39448;SDS011;25151;45.566;9.382;2022-09-09T18:19:31;3.22;;;1.50;;
39448;SDS011;25151;45.566;9.382;2022-09-09T18:22:32;4.60;;;0.80;;
39448;SDS011;25151;45.566;9.382;2022-09-09T18:25:38;6.03;;;1.35;;
39448;SDS011;25151;45.566;9.382;2022-09-09T18:28:40;6.55;;;1.05;;
39448;SDS011;25151;45.566;9.382;2022-09-09T18:31:42;7.28;;;1.10;;
39448;SDS011;25151;45.566;9.382;2022-09-09T18:34:43;3.50;;;0.95;;
39448;SDS011;25151;45.566;9.382;2022-09-09T18:37:45;3.80;;;1.23;;
39448;SDS011;25151;45.566;9.382;2022-09-09T18:40:47;2.22;;;1.17;;
39448;SDS011;25151;45.566;9.382;2022-09-09T18:43:51;4.97;;;1.05;;
39448;SDS011;25151;45.566;9.382;2022-09-09T18:46:54;2.58;;;1.35;;
39448;SDS011;25151;45.566;9.382;2022-09-09T18:49:54;1.90;;;0.85;;
39448;SDS011;25151;45.566;9.382;2022-09-09T18:52:55;5.90;;;0.90;;
39448;SDS011;25151;45.566;9.382;2022-09-09T18:55:59;5.32;;;1.30;;
39448;SDS011;25151;45.566;9.382;2022-09-09T18:59:02;4.88;;;1.23;;
39448;SDS011;25151;45.566;9.382;2022-09-09T19:02:06;4.47;;;0.93;;
39448;SDS011;25151;45.566;9.382;2022-09-09T19:05:07;4.88;;;1.13;;
39448;SDS011;25151;45.566;9.382;2022-09-09T19:08:08;7.20;;;1.30;;
39448;SDS011;25151;45.566;9.382;2022-09-09T19:11:10;1.80;;;0.98;;
39448;SDS011;25151;45.566;9.382;2022-09-09T19:14:13;5.97;;;1.20;;
39448;SDS011;25151;45.566;9.382;2022-09-09T19:17:15;6.22;;;1.08;;
39448;SDS011;25151;45.566;9.382;2022-09-09T19:20:16;1.30;;;0.90;;
39448;SDS011;25151;45.566;9.382;2022-09-09T19:23:22;5.18;;;1.30;;
39448;SDS011;25151;45.566;9.382;2022-09-09T19:26:29;4.55;;;1.30;;
39448;SDS011;25151;45.566;9.382;2022-09-09T19:29:35;1.63;;;0.80;;
39448;SDS011;25151;45.566;9.382;2022-09-09T19:32:38;7.30;;;0.95;;
39448;SDS011;25151;45.566;9.382;2022-09-09T19:35:39;2.08;;;1.10;;
39448;SDS011;25151;45.566;9.382;2022-09-09T19:38:40;5.50;;;1.00;;
39448;SDS011;25151;45.566;9.382;2022-09-09T19:41:41;3.70;;;0.90;;
39448;SDS011;25151;45.566;9.382;2022-09-09T19:44:41;6.72;;;1.27;;
39448;SDS011;25151;45.566;9.382;2022-09-09T19:47:42;5.13;;;1.02;;
39448;SDS011;25151;45.566;9.382;2022-09-09T19:50:44;1.27;;;0.88;;
39448;SDS011;25151;45.566;9.382;2022-09-09T19:53:46;4.35;;;1.30;;
39448;SDS011;25151;45.566;9.382;2022-09-09T19:56:48;1.77;;;1.02;;
39448;SDS011;25151;45.566;9.382;2022-09-09T19:59:49;2.60;;;1.17;;
39448;SDS011;25151;45.566;9.382;2022-09-09T20:02:49;4.22;;;0.90;;
39448;SDS011;25151;45.566;9.382;2022-09-09T20:05:50;3.08;;;1.13;;
39448;SDS011;25151;45.566;9.382;2022-09-09T20:08:51;5.55;;;1.08;;
39448;SDS011;25151;45.566;9.382;2022-09-09T20:11:52;1.88;;;0.85;;
39448;SDS011;25151;45.566;9.382;2022-09-09T20:14:52;5.53;;;1.10;;
39448;SDS011;25151;45.566;9.382;2022-09-09T20:17:53;3.90;;;0.90;;
39448;SDS011;25151;45.566;9.382;2022-09-09T20:21:02;2.53;;;1.00;;
39448;SDS011;25151;45.566;9.382;2022-09-09T20:24:09;2.22;;;0.90;;